Weather at Muskoka Airport

Public forecast

Using degrees Celsius for public forecast. Weather courtesy of forecast.io.

Current aviation weather report (METAR) for Muskoka Airport

Retrieved 2020/11/30 12:00 UTC (49 minutes ago):

CYQA 301200Z AUTO VRB02KT 9SM OVC070 01/01 A2973 RMK SLP082

Aviation forecast (TAF) for Muskoka Airport

Retrieved 2020/11/30 13:39 UTC (0 seconds ago):

TAF CYQA 301238Z 3013/0101 13005KT P6SM FEW015 OVC070 TEMPO 3013/3021 5SM -RA BR BKN015 OVC070 BECMG 3016/3018 01006KT FM302100 34010G20KT 5SM -RA BR BKN008 OVC040 TEMPO 3021/3023 P6SM -RA SCT008 OVC015 FM302300 34012G22KT 2SM -SNRA BR OVC005 RMK FCST BASED ON AUTO OBS NXT FCST BY 302000Z